Time;durP1;ratioP1;P1;durP2;ratioP2;P2;SDS_P1;SDS_P2;PMS_P1;PMS_P2;Temp;Humidity;BMP_temperature;BMP_pressure;BME280_temperature;BME280_humidity;BME280_pressure;Samples;Min_cycle;Max_cycle;Signal;HPM_P1;HPM_P2
2022/04/20 00:00:48;;;;;;;51.80;32.88;;;128.80;2252.80;;;;;;5075192;28;20039;-81
2022/04/20 00:03:14;;;;;;;44.80;28.65;;;128.80;2252.80;;;;;;5076882;28;20372;-80
2022/04/20 00:05:40;;;;;;;47.30;30.42;;;128.60;2252.80;;;;;;5077706;28;20028;-82
2022/04/20 00:08:06;;;;;;;36.83;25.42;;;128.70;2252.80;;;;;;5079552;28;20033;-81
2022/04/20 00:10:32;;;;;;;48.05;29.23;;;128.50;2252.80;;;;;;5077191;28;20029;-81
2022/04/20 00:12:58;;;;;;;64.95;37.60;;;128.60;2252.80;;;;;;5074719;28;20032;-83
2022/04/20 00:15:24;;;;;;;68.30;38.78;;;128.60;2252.80;;;;;;5074838;28;20028;-79
2022/04/20 00:17:50;;;;;;;72.60;42.88;;;128.80;2252.80;;;;;;5074671;28;20024;-80
2022/04/20 00:20:17;;;;;;;73.45;44.13;;;128.70;2252.80;;;;;;5074704;28;20033;-79
2022/04/20 00:22:43;;;;;;;67.32;42.92;;;154.10;2252.80;;;;;;5074498;28;20365;-81
2022/04/20 00:25:09;;;;;;;75.18;47.08;;;128.60;2252.80;;;;;;5075960;28;20090;-79
2022/04/20 00:27:36;;;;;;;55.03;35.38;;;128.40;2252.80;;;;;;5074552;28;20465;-81
2022/04/20 00:30:06;;;;;;;50.58;32.97;;;128.60;2252.80;;;;;;5074479;28;20029;-82
2022/04/20 00:32:33;;;;;;;50.70;29.05;;;128.60;2252.80;;;;;;5074708;28;20028;-80
2022/04/20 00:34:59;;;;;;;53.60;31.05;;;128.60;2252.80;;;;;;5074646;28;20028;-81
2022/04/20 00:37:25;;;;;;;42.22;27.95;;;128.60;2252.80;;;;;;5074453;28;20032;-81
2022/04/20 00:39:51;;;;;;;52.05;30.08;;;128.70;2252.80;;;;;;5075621;28;20099;-80
2022/04/20 00:42:18;;;;;;;51.80;29.92;;;128.70;2252.80;;;;;;5074029;28;20105;-82
2022/04/20 00:44:44;;;;;;;52.03;31.02;;;128.60;2252.80;;;;;;5074330;28;20037;-82
2022/04/20 00:47:10;;;;;;;56.47;30.90;;;128.70;2252.80;;;;;;5074491;28;20021;-81
2022/04/20 00:49:37;;;;;;;49.90;31.85;;;128.80;2252.80;;;;;;5074373;28;20119;-82
2022/04/20 00:52:06;;;;;;;58.35;33.25;;;128.90;2252.80;;;;;;5073933;28;20167;-83
2022/04/20 00:54:32;;;;;;;48.35;32.28;;;128.80;2252.80;;;;;;5073282;28;20089;-79
2022/04/20 00:56:58;;;;;;;62.17;34.28;;;128.80;2252.80;;;;;;5075325;28;20035;-81
2022/04/20 00:59:27;;;;;;;59.28;32.90;;;128.80;2252.80;;;;;;5073993;28;20021;-80
2022/04/20 01:01:54;;;;;;;55.95;32.40;;;128.90;2252.80;;;;;;5075664;28;20033;-79
2022/04/20 01:04:20;;;;;;;38.30;23.75;;;128.90;2252.80;;;;;;5073966;28;20082;-84
2022/04/20 01:06:47;;;;;;;38.38;23.58;;;128.70;2252.80;;;;;;5073678;28;20028;-80
2022/04/20 01:09:13;;;;;;;37.17;22.30;;;128.80;2252.80;;;;;;5073870;28;20048;-82
2022/04/20 01:11:39;;;;;;;41.75;24.00;;;128.80;2252.80;;;;;;5073619;28;20082;-79
2022/04/20 01:14:06;;;;;;;35.95;24.58;;;128.80;2252.80;;;;;;5073772;28;20483;-81
2022/04/20 01:16:32;;;;;;;42.47;25.90;;;128.80;2252.80;;;;;;5073602;28;20033;-79
2022/04/20 01:18:57;;;;;;;40.35;25.10;;;128.80;2252.80;;;;;;5073532;28;20434;-78
2022/04/20 01:21:24;;;;;;;37.10;24.13;;;128.80;2252.80;;;;;;5073854;28;20029;-82
2022/04/20 01:23:52;;;;;;;41.53;25.10;;;128.70;2252.80;;;;;;5074765;28;20063;-79
2022/04/20 01:26:18;;;;;;;29.92;20.20;;;128.70;2252.80;;;;;;5073189;28;20043;-84
2022/04/20 01:28:46;;;;;;;32.08;19.15;;;128.70;2252.80;;;;;;5073410;28;20028;-82
2022/04/20 01:31:16;;;;;;;37.65;20.98;;;128.30;2252.80;;;;;;5074531;28;20036;-81
2022/04/20 01:33:44;;;;;;;32.85;20.77;;;128.10;2252.80;;;;;;5073316;28;20021;-81
2022/04/20 01:36:10;;;;;;;28.35;18.92;;;103.30;2227.20;;;;;;5073329;28;20055;-83
2022/04/20 01:38:37;;;;;;;30.42;19.48;;;128.10;2252.80;;;;;;5073456;28;20028;-81
2022/04/20 01:41:04;;;;;;;26.38;17.98;;;128.00;2252.80;;;;;;5073014;28;20051;-81
2022/04/20 01:43:30;;;;;;;29.55;17.13;;;128.50;2252.80;;;;;;5073337;28;20054;-82
2022/04/20 01:45:56;;;;;;;26.67;16.40;;;103.20;2227.20;;;;;;5073371;28;20025;-84
2022/04/20 01:48:21;;;;;;;24.38;15.73;;;103.30;2227.20;;;;;;5073094;28;20032;-81
2022/04/20 01:53:32;;;;;;;33.13;18.20;;;103.30;2227.20;;;;;;5074254;28;20113;-84
2022/04/20 01:56:00;;;;;;;36.17;21.33;;;103.30;2227.20;;;;;;5073022;28;20032;-83
2022/04/20 01:58:27;;;;;;;26.98;17.67;;;128.00;2252.80;;;;;;5073176;28;20071;-83
2022/04/20 02:00:52;;;;;;;30.23;18.80;;;128.10;2252.80;;;;;;5072780;28;20480;-81
2022/04/20 02:03:19;;;;;;;25.55;16.67;;;128.30;2252.80;;;;;;5072704;28;20031;-83
2022/04/20 02:05:44;;;;;;;27.15;14.05;;;128.00;2252.80;;;;;;5072995;28;20127;-81
2022/04/20 02:08:10;;;;;;;24.33;15.20;;;128.00;2252.80;;;;;;5072663;28;20064;-85
2022/04/20 02:10:36;;;;;;;25.95;13.60;;;128.00;2252.80;;;;;;5072804;28;20469;-82
2022/04/20 02:13:02;;;;;;;29.83;16.40;;;128.00;2252.80;;;;;;5072777;28;20393;-81
2022/04/20 02:15:28;;;;;;;27.75;17.15;;;128.10;2252.80;;;;;;5072517;28;20457;-83
2022/04/20 02:17:54;;;;;;;19.92;12.60;;;103.30;2227.20;;;;;;5072834;28;20032;-83
2022/04/20 02:20:20;;;;;;;27.52;16.08;;;103.20;2227.20;;;;;;5073105;28;20036;-81
2022/04/20 02:22:46;;;;;;;27.60;15.13;;;103.30;2227.20;;;;;;5072529;28;20032;-82
2022/04/20 02:25:12;;;;;;;25.67;15.25;;;128.00;2252.80;;;;;;5072514;28;20038;-82
2022/04/20 02:27:38;;;;;;;28.13;16.38;;;128.10;2252.80;;;;;;5072780;28;20372;-82
2022/04/20 02:30:05;;;;;;;28.40;15.00;;;128.10;2252.80;;;;;;5072403;28;20094;-80
2022/04/20 02:32:31;;;;;;;30.95;16.55;;;128.20;2252.80;;;;;;5072731;28;20066;-82
2022/04/20 02:34:57;;;;;;;26.58;17.33;;;128.10;2252.80;;;;;;5073875;28;20024;-80
2022/04/20 02:37:23;;;;;;;23.08;15.15;;;128.30;2252.80;;;;;;5072437;28;20024;-81
2022/04/20 02:39:49;;;;;;;30.65;17.15;;;128.50;2252.80;;;;;;5073948;28;20028;-83
2022/04/20 02:42:17;;;;;;;31.02;17.75;;;128.50;2252.80;;;;;;5072465;28;20485;-80
2022/04/20 02:44:43;;;;;;;42.88;22.40;;;128.30;2252.80;;;;;;5073747;28;20150;-81
2022/04/20 02:47:09;;;;;;;45.95;25.45;;;128.50;2252.80;;;;;;5072723;28;20074;-78
2022/04/20 02:49:35;;;;;;;44.15;24.67;;;128.50;2252.80;;;;;;5073832;28;20029;-78
2022/04/20 02:52:02;;;;;;;31.35;19.33;;;128.50;2252.80;;;;;;5072387;28;20029;-82
2022/04/20 02:54:29;;;;;;;29.50;19.30;;;128.60;2252.80;;;;;;5072672;28;20532;-83
2022/04/20 02:56:55;;;;;;;24.33;17.90;;;128.50;2252.80;;;;;;5072564;28;20028;-83
2022/04/20 02:59:21;;;;;;;51.42;27.00;;;128.30;2252.80;;;;;;5072575;28;20381;-80
2022/04/20 03:01:47;;;;;;;49.13;26.50;;;128.40;2252.80;;;;;;5072674;28;20032;-80
2022/04/20 03:04:13;;;;;;;46.53;27.15;;;128.50;2252.80;;;;;;5073687;28;20028;-83
2022/04/20 03:06:38;;;;;;;42.20;24.42;;;128.40;2252.80;;;;;;5072598;28;20031;-81
2022/04/20 03:09:05;;;;;;;41.30;24.52;;;128.40;2252.80;;;;;;5072569;28;20490;-82
2022/04/20 03:11:31;;;;;;;36.08;22.83;;;128.60;2252.80;;;;;;5072183;28;20036;-83
2022/04/20 03:13:56;;;;;;;33.20;21.42;;;128.80;2252.80;;;;;;5072241;28;20032;-81
2022/04/20 03:16:24;;;;;;;35.58;23.35;;;128.90;2252.80;;;;;;5072424;28;20025;-78
2022/04/20 03:18:50;;;;;;;38.00;23.15;;;153.60;2252.80;;;;;;5077539;28;20034;-81
2022/04/20 03:21:16;;;;;;;44.45;23.88;;;153.70;2252.80;;;;;;5078913;28;20087;-80
2022/04/20 03:23:41;;;;;;;39.10;23.98;;;128.90;2252.80;;;;;;5078803;28;20494;-82
2022/04/20 03:26:08;;;;;;;40.55;24.67;;;153.60;2252.80;;;;;;5098256;28;20086;-78
2022/04/20 03:28:34;;;;;;;41.72;25.48;;;153.80;2252.80;;;;;;5088159;28;20115;-83
2022/04/20 03:31:00;;;;;;;42.17;25.70;;;128.90;2252.80;;;;;;5075922;28;20036;-82
2022/04/20 03:33:26;;;;;;;32.38;21.92;;;128.60;2252.80;;;;;;5077272;28;20033;-79
2022/04/20 03:35:52;;;;;;;33.70;21.30;;;128.60;2252.80;;;;;;5076907;28;20479;-82
2022/04/20 03:38:18;;;;;;;31.02;21.33;;;128.80;2252.80;;;;;;5075706;28;20120;-82
2022/04/20 03:40:45;;;;;;;28.30;19.30;;;128.70;2252.80;;;;;;5075134;28;20128;-79
2022/04/20 03:43:11;;;;;;;25.65;18.50;;;128.80;2252.80;;;;;;5075725;28;20055;-83
2022/04/20 03:45:37;;;;;;;30.10;18.20;;;128.70;2252.80;;;;;;5075404;28;20052;-81
2022/04/20 03:48:04;;;;;;;27.92;16.45;;;128.70;2252.80;;;;;;5075578;28;20078;-78
2022/04/20 03:50:30;;;;;;;30.95;17.15;;;128.60;2252.80;;;;;;5075424;28;20123;-83
2022/04/20 03:52:56;;;;;;;29.23;15.93;;;128.70;2252.80;;;;;;5075080;28;20042;-79
2022/04/20 03:55:22;;;;;;;27.23;16.60;;;128.70;2252.80;;;;;;5075539;28;20124;-80
2022/04/20 03:57:48;;;;;;;23.50;16.23;;;128.90;2252.80;;;;;;5075441;28;20025;-81
2022/04/20 04:00:14;;;;;;;23.48;17.38;;;128.90;2252.80;;;;;;5076227;28;20036;-83
2022/04/20 04:02:40;;;;;;;22.30;15.63;;;128.90;2252.80;;;;;;5075065;28;20024;-80
2022/04/20 04:05:06;;;;;;;23.25;16.75;;;128.70;2252.80;;;;;;5075058;28;20181;-82
2022/04/20 04:07:32;;;;;;;25.10;17.88;;;128.70;2252.80;;;;;;5076170;28;20020;-80
2022/04/20 04:09:57;;;;;;;31.77;20.48;;;128.40;2252.80;;;;;;5075067;28;20092;-78
2022/04/20 04:12:24;;;;;;;29.15;17.42;;;128.70;2252.80;;;;;;5075006;28;20028;-78
2022/04/20 04:14:50;;;;;;;25.48;16.95;;;128.70;2252.80;;;;;;5074789;28;20035;-81
2022/04/20 04:17:16;;;;;;;22.80;16.95;;;128.70;2252.80;;;;;;5074998;28;20025;-80
2022/04/20 04:19:42;;;;;;;24.75;16.88;;;128.80;2252.80;;;;;;5074831;28;20457;-82
2022/04/20 04:22:08;;;;;;;29.17;18.63;;;128.60;2252.80;;;;;;5074755;28;20032;-83
2022/04/20 04:24:36;;;;;;;40.08;22.60;;;128.60;2252.80;;;;;;5074812;28;20025;-82
2022/04/20 04:27:04;;;;;;;29.55;19.02;;;128.50;2252.80;;;;;;5075976;28;20028;-82
2022/04/20 04:29:31;;;;;;;46.22;24.33;;;128.20;2252.80;;;;;;5074652;28;20024;-82
2022/04/20 04:31:58;;;;;;;57.80;27.08;;;128.40;2252.80;;;;;;5074385;28;20436;-82
2022/04/20 04:34:24;;;;;;;71.10;33.55;;;128.30;2252.80;;;;;;5074670;28;20388;-83
2022/04/20 04:36:51;;;;;;;56.38;28.92;;;128.30;2252.80;;;;;;5074174;28;20107;-81
2022/04/20 04:39:21;;;;;;;51.67;28.55;;;128.40;2252.80;;;;;;5075408;28;20059;-78
2022/04/20 04:41:50;;;;;;;52.53;26.92;;;128.20;2252.80;;;;;;5074944;28;20044;-81
2022/04/20 04:44:20;;;;;;;50.55;28.17;;;128.40;2252.80;;;;;;5074076;28;20031;-79
2022/04/20 04:49:31;;;;;;;56.55;28.85;;;128.40;2252.80;;;;;;5075347;28;20098;-80
2022/04/20 04:51:58;;;;;;;45.65;25.80;;;128.50;2252.80;;;;;;5074236;28;20123;-78
2022/04/20 04:54:24;;;;;;;52.50;31.42;;;128.50;2252.80;;;;;;5074155;28;20025;-80
2022/04/20 04:56:50;;;;;;;60.28;32.70;;;128.40;2252.80;;;;;;5073582;28;20128;-79
2022/04/20 04:59:16;;;;;;;42.05;27.52;;;128.40;2252.80;;;;;;5073996;28;20098;-80
2022/04/20 05:01:42;;;;;;;46.97;29.38;;;128.20;2252.80;;;;;;5073908;28;20541;-77
2022/04/20 05:04:08;;;;;;;40.75;27.77;;;128.40;2252.80;;;;;;5073566;28;20029;-80
2022/04/20 05:06:35;;;;;;;48.00;29.88;;;128.30;2252.80;;;;;;5073647;28;20166;-81
2022/04/20 05:09:01;;;;;;;46.08;29.75;;;128.20;2252.80;;;;;;5073903;28;20025;-77
2022/04/20 05:11:26;;;;;;;49.90;30.90;;;128.10;2252.80;;;;;;5073509;28;20036;-79
2022/04/20 05:13:53;;;;;;;50.58;31.35;;;128.20;2252.80;;;;;;5073754;28;20032;-79
2022/04/20 05:16:19;;;;;;;70.35;48.97;;;128.30;2252.80;;;;;;5073809;28;20025;-81
2022/04/20 05:18:45;;;;;;;55.50;35.97;;;128.30;2252.80;;;;;;5073334;28;20024;-78
2022/04/20 05:21:10;;;;;;;53.92;39.47;;;128.10;2252.80;;;;;;5073465;28;20035;-80
2022/04/20 05:23:36;;;;;;;52.88;38.53;;;128.20;2252.80;;;;;;5073438;28;20119;-76
2022/04/20 05:26:02;;;;;;;60.80;41.83;;;128.30;2252.80;;;;;;5073056;28;20028;-75
2022/04/20 05:28:28;;;;;;;63.88;44.13;;;128.30;2252.80;;;;;;5074592;28;20525;-78
2022/04/20 05:30:54;;;;;;;68.30;45.53;;;128.50;2252.80;;;;;;5074404;28;20081;-78
2022/04/20 05:33:20;;;;;;;58.42;40.92;;;128.80;2252.80;;;;;;5074243;28;20024;-78
2022/04/20 05:35:46;;;;;;;52.17;36.58;;;128.70;2252.80;;;;;;5073313;28;20024;-80
2022/04/20 05:43:40;;;;;;;60.25;41.85;;;128.60;2252.80;;;;;;5074060;28;20027;-77
2022/04/20 05:46:06;;;;;;;50.17;38.95;;;128.70;2252.80;;;;;;5074075;28;20064;-78
2022/04/20 05:48:35;;;;;;;50.72;36.33;;;128.50;2252.80;;;;;;5072744;28;20461;-76
2022/04/20 05:51:01;;;;;;;57.60;43.17;;;128.50;2252.80;;;;;;5073033;28;20097;-77
2022/04/20 05:53:27;;;;;;;63.22;44.90;;;128.30;2252.80;;;;;;5072312;28;20024;-80
2022/04/20 05:55:53;;;;;;;71.72;55.95;;;128.40;2252.80;;;;;;5072917;28;20107;-80
2022/04/20 05:58:19;;;;;;;70.30;51.10;;;128.40;2252.80;;;;;;5072824;28;20024;-77
2022/04/20 06:00:44;;;;;;;41.67;30.92;;;128.60;2252.80;;;;;;5072774;28;20366;-77
2022/04/20 06:03:11;;;;;;;35.13;27.60;;;128.50;2252.80;;;;;;5072716;28;20028;-76
2022/04/20 06:05:38;;;;;;;37.30;28.83;;;128.60;2252.80;;;;;;5072623;28;20055;-76
2022/04/20 06:08:04;;;;;;;47.03;33.28;;;128.50;2252.80;;;;;;5072732;28;20112;-76
2022/04/20 06:10:32;;;;;;;40.75;29.52;;;128.70;2252.80;;;;;;5072702;28;20024;-76
2022/04/20 06:12:59;;;;;;;44.40;34.38;;;128.80;2252.80;;;;;;5073710;28;20158;-78
2022/04/20 06:15:24;;;;;;;52.08;35.58;;;128.80;2252.80;;;;;;5073902;28;20017;-78
2022/04/20 06:17:50;;;;;;;46.30;35.08;;;128.70;2252.80;;;;;;5072687;28;20032;-80
2022/04/20 06:20:16;;;;;;;77.22;52.67;;;128.80;2252.80;;;;;;5072365;28;20032;-80
2022/04/20 06:22:42;;;;;;;54.90;39.38;;;128.90;2252.80;;;;;;5072624;28;20033;-81
2022/04/20 06:25:08;;;;;;;44.13;30.55;;;128.90;2252.80;;;;;;5072549;28;20078;-78
2022/04/20 06:27:34;;;;;;;39.35;30.27;;;153.60;2252.80;;;;;;5072515;28;20017;-77
2022/04/20 06:30:01;;;;;;;65.40;42.92;;;153.60;2252.80;;;;;;5073040;28;20028;-76
2022/04/20 06:32:28;;;;;;;37.22;28.55;;;153.70;2252.80;;;;;;5075195;28;20032;-78
2022/04/20 06:34:57;;;;;;;38.88;30.75;;;128.80;2252.80;;;;;;5075390;28;20472;-76
2022/04/20 06:37:24;;;;;;;45.10;31.00;;;128.90;2252.80;;;;;;5072677;28;20025;-80
2022/04/20 06:39:50;;;;;;;48.17;33.78;;;153.60;2252.80;;;;;;5073337;28;20024;-79
2022/04/20 06:42:18;;;;;;;56.33;38.78;;;153.70;2252.80;;;;;;5072208;28;20397;-79
2022/04/20 06:44:44;;;;;;;169.98;117.03;;;153.70;2252.80;;;;;;5073794;28;20020;-81
2022/04/20 06:47:10;;;;;;;57.25;41.22;;;153.70;2252.80;;;;;;5072358;28;20028;-78
2022/04/20 06:49:36;;;;;;;54.03;38.95;;;128.90;2252.80;;;;;;5072170;28;20074;-78
2022/04/20 07:00:18;;;;;;;66.72;51.05;;;153.70;2252.80;;;;;;5077851;28;20081;-78
2022/04/20 07:02:44;;;;;;;79.65;57.85;;;153.80;2252.80;;;;;;5076165;28;20025;-77
2022/04/20 07:05:10;;;;;;;102.85;77.82;;;154.00;2252.80;;;;;;5077350;28;20025;-75
2022/04/20 07:07:36;;;;;;;122.68;93.90;;;154.00;2252.80;;;;;;5076012;28;20036;-77
2022/04/20 07:10:05;;;;;;;229.40;163.63;;;154.00;2252.80;;;;;;5075834;28;20024;-79
2022/04/20 07:12:32;;;;;;;152.50;112.60;;;154.00;2252.80;;;;;;5076870;28;20040;-79
2022/04/20 07:14:58;;;;;;;78.05;60.30;;;154.00;2252.80;;;;;;5075856;28;20032;-78
2022/04/20 07:17:23;;;;;;;132.55;98.85;;;153.90;2252.80;;;;;;5075597;28;20025;-77
2022/04/20 07:19:49;;;;;;;93.47;73.07;;;154.00;2252.80;;;;;;5075892;28;20036;-78
2022/04/20 07:22:15;;;;;;;120.60;90.60;;;153.90;2252.80;;;;;;5075678;28;20029;-80
2022/04/20 07:24:41;;;;;;;74.55;56.97;;;154.00;2252.80;;;;;;5075138;28;20111;-75
2022/04/20 07:27:07;;;;;;;66.72;52.72;;;153.90;2252.80;;;;;;5075935;28;20052;-79
2022/04/20 07:29:32;;;;;;;51.35;39.47;;;154.00;2252.80;;;;;;5075706;28;20070;-76
2022/04/20 07:31:58;;;;;;;63.83;48.15;;;154.00;2252.80;;;;;;5075235;28;20123;-79
2022/04/20 07:34:24;;;;;;;63.70;48.58;;;154.00;2252.80;;;;;;5077001;28;20096;-76
2022/04/20 07:36:50;;;;;;;70.15;51.50;;;154.00;2252.80;;;;;;5075466;28;20036;-79
2022/04/20 07:39:16;;;;;;;86.35;62.22;;;154.00;2022.40;;;;;;5075571;28;20032;-78
2022/04/20 07:41:42;;;;;;;70.22;53.70;;;153.90;2252.80;;;;;;5075217;28;20463;-76
2022/04/20 07:44:08;;;;;;;105.55;76.15;;;154.00;2252.80;;;;;;5075219;28;20051;-82
2022/04/20 07:46:34;;;;;;;248.43;181.25;;;154.00;2252.80;;;;;;5076643;28;20458;-81
2022/04/20 07:50:18;;;;;;;49.85;38.60;;;154.10;2252.80;;;;;;5075299;28;20033;-81
2022/04/20 07:51:45;;;;;;;41.85;32.10;;;154.10;2252.80;;;;;;5076180;28;20400;-80
2022/04/20 07:54:11;;;;;;;41.72;33.55;;;154.20;2252.80;;;;;;5075455;28;20028;-81
2022/04/20 07:56:37;;;;;;;38.28;31.48;;;154.20;2252.80;;;;;;5075210;28;20036;-78
2022/04/20 07:59:02;;;;;;;41.78;32.30;;;154.30;2252.80;;;;;;5074920;28;20115;-78
2022/04/20 08:01:28;;;;;;;36.83;28.75;;;154.20;2252.80;;;;;;5075185;28;20115;-78
2022/04/20 08:03:54;;;;;;;26.65;21.52;;;154.30;2252.80;;;;;;5074628;28;20024;-78
2022/04/20 08:06:20;;;;;;;25.42;20.55;;;154.20;2252.80;;;;;;5074472;28;20051;-79
2022/04/20 08:08:46;;;;;;;31.38;24.58;;;154.10;2252.80;;;;;;5075123;28;20020;-79
2022/04/20 08:11:12;;;;;;;28.17;22.75;;;154.20;2252.80;;;;;;5074894;28;20527;-82
2022/04/20 08:16:22;;;;;;;27.23;22.98;;;154.20;2252.80;;;;;;5076201;28;20027;-83
2022/04/20 08:18:48;;;;;;;48.80;43.60;;;154.20;2252.80;;;;;;5075584;28;20103;-80
2022/04/20 08:21:14;;;;;;;46.40;34.63;;;154.10;2252.80;;;;;;5074529;28;20033;-83
2022/04/20 08:23:39;;;;;;;83.22;53.00;;;154.10;2252.80;;;;;;5074656;28;20024;-82
2022/04/20 08:26:05;;;;;;;56.55;40.33;;;154.10;2252.80;;;;;;5075705;28;20103;-79
2022/04/20 08:28:31;;;;;;;26.00;20.45;;;154.00;2252.80;;;;;;5076062;28;20059;-82
2022/04/20 08:30:57;;;;;;;28.48;21.33;;;154.00;2252.80;;;;;;5074415;28;20093;-81
2022/04/20 08:33:22;;;;;;;29.17;23.45;;;153.90;2252.80;;;;;;5074423;28;20029;-81
2022/04/20 08:35:48;;;;;;;34.60;27.60;;;153.90;2252.80;;;;;;5075018;28;20509;-82
2022/04/20 08:38:14;;;;;;;25.67;21.88;;;153.90;2252.80;;;;;;5075898;28;20025;-82
2022/04/20 08:40:41;;;;;;;31.63;26.73;;;154.00;2252.80;;;;;;5073949;28;20123;-79
2022/04/20 08:43:08;;;;;;;29.90;26.67;;;154.00;2252.80;;;;;;5074605;28;20031;-81
2022/04/20 08:45:38;;;;;;;24.95;20.75;;;153.90;2252.80;;;;;;5074476;28;20029;-80
2022/04/20 08:48:05;;;;;;;30.42;25.00;;;153.90;2252.80;;;;;;5075122;28;20480;-79
2022/04/20 08:50:31;;;;;;;33.35;24.55;;;154.00;2252.80;;;;;;5074071;28;20119;-81
2022/04/20 08:52:58;;;;;;;28.58;21.83;;;153.90;2252.80;;;;;;5074266;28;20116;-80
2022/04/20 08:55:24;;;;;;;25.67;20.90;;;154.00;2252.80;;;;;;5074148;28;20381;-82
2022/04/20 08:57:55;;;;;;;22.58;17.80;;;153.90;2252.80;;;;;;5074126;28;20484;-82
2022/04/20 09:00:23;;;;;;;28.58;19.95;;;153.90;2252.80;;;;;;5074142;28;20457;-81
2022/04/20 09:02:56;;;;;;;22.95;17.25;;;154.00;2252.80;;;;;;5073833;28;20082;-77
2022/04/20 09:05:23;;;;;;;24.77;21.20;;;153.90;2252.80;;;;;;5075246;28;20029;-80
2022/04/20 09:07:49;;;;;;;21.92;17.73;;;154.00;2252.80;;;;;;5073747;28;20054;-83
2022/04/20 09:10:16;;;;;;;25.88;20.60;;;153.90;2252.80;;;;;;5073689;28;20465;-82
2022/04/20 09:12:44;;;;;;;25.80;19.45;;;153.90;2252.80;;;;;;5073809;28;20055;-80
2022/04/20 09:15:27;;;;;;;21.20;17.33;;;154.00;2252.80;;;;;;5072905;28;20021;-80
2022/04/20 09:17:56;;;;;;;16.23;13.18;;;154.10;2252.80;;;;;;5073901;28;20067;-80
2022/04/20 09:20:22;;;;;;;11.57;9.88;;;153.90;2252.80;;;;;;5073738;28;20058;-79
2022/04/20 09:23:04;;;;;;;15.02;10.00;;;153.90;2252.80;;;;;;5073438;28;20060;-80
2022/04/20 09:25:32;;;;;;;19.02;14.10;;;153.90;2252.80;;;;;;5073587;28;20124;-79
2022/04/20 09:27:58;;;;;;;34.35;22.75;;;153.90;2252.80;;;;;;5074790;28;20028;-82
2022/04/20 09:30:24;;;;;;;35.00;24.10;;;153.80;2252.80;;;;;;5073387;28;20382;-80
2022/04/20 09:32:49;;;;;;;51.17;29.42;;;153.80;2252.80;;;;;;5074507;28;20124;-78
2022/04/20 09:35:21;;;;;;;99.90;75.80;;;153.70;2252.80;;;;;;5074533;28;20031;-82
2022/04/20 09:38:05;;;;;;;30.17;24.15;;;153.80;2252.80;;;;;;5072951;28;20032;-80
2022/04/20 09:40:33;;;;;;;48.40;33.40;;;153.60;2252.80;;;;;;5073509;28;20059;-81
2022/04/20 09:43:06;;;;;;;36.38;28.02;;;153.60;2252.80;;;;;;5074575;28;20029;-79
2022/04/20 09:45:34;;;;;;;32.25;24.92;;;153.60;2252.80;;;;;;5077662;28;20115;-79
2022/04/20 09:51:09;;;;;;;69.63;52.70;;;153.70;2252.80;;;;;;5074003;28;20052;-82
2022/04/20 09:53:35;;;;;;;56.58;39.72;;;153.60;2252.80;;;;;;5073139;28;20040;-81
2022/04/20 09:56:24;;;;;;;38.55;30.27;;;153.60;2252.80;;;;;;5074482;28;20020;-84
2022/04/20 09:59:02;;;;;;;33.55;25.88;;;153.60;2252.80;;;;;;5072931;28;20017;-84
2022/04/20 10:01:30;;;;;;;29.13;22.33;;;128.90;2252.80;;;;;;5097151;28;20008;-84
2022/04/20 10:03:57;;;;;;;26.42;20.42;;;128.90;2252.80;;;;;;5075458;28;20082;-81
2022/04/20 10:06:23;;;;;;;33.17;25.85;;;128.90;2252.80;;;;;;5073551;28;20035;-83
2022/04/20 10:08:52;;;;;;;34.20;27.77;;;128.70;2252.80;;;;;;5072951;28;20115;-83
2022/04/20 10:11:22;;;;;;;31.98;25.83;;;128.60;2252.80;;;;;;5072631;28;20032;-84
2022/04/20 10:16:05;;;;;;;48.88;34.10;;;128.50;2252.80;;;;;;5073247;28;20098;-84
2022/04/20 10:16:39;;;;;;;55.67;34.17;;;128.40;2252.80;;;;;;5073856;28;20029;-83
2022/04/20 10:19:08;;;;;;;40.13;29.27;;;128.40;2252.80;;;;;;5072554;28;20111;-76
2022/04/20 10:21:43;;;;;;;31.83;24.83;;;128.10;2252.80;;;;;;5072384;28;20043;-77
2022/04/20 10:24:14;;;;;;;43.72;33.83;;;128.40;2252.80;;;;;;5072387;28;20029;-80
2022/04/20 10:26:41;;;;;;;26.35;21.55;;;128.30;2252.80;;;;;;5072136;28;20025;-78
2022/04/20 10:29:27;;;;;;;18.25;13.20;;;128.30;2252.80;;;;;;5072310;28;20068;-79
2022/04/20 10:32:22;;;;;;;25.70;20.50;;;128.30;2252.80;;;;;;5072243;28;20044;-80
2022/04/20 10:34:52;;;;;;;12.45;10.10;;;128.40;2252.80;;;;;;5072471;28;20024;-79
2022/04/20 10:37:25;;;;;;;14.10;10.40;;;128.40;2252.80;;;;;;5072469;28;20077;-79
2022/04/20 10:39:53;;;;;;;30.42;18.58;;;128.40;2252.80;;;;;;5071943;28;20028;-80
2022/04/20 10:42:21;;;;;;;28.67;21.58;;;128.50;2252.80;;;;;;5070444;28;20045;-80
2022/04/20 10:45:01;;;;;;;22.55;16.60;;;128.50;2252.80;;;;;;5072129;28;20545;-82
2022/04/20 10:47:42;;;;;;;16.27;11.00;;;128.40;2252.80;;;;;;5072025;28;20032;-78
2022/04/20 10:50:19;;;;;;;37.55;27.27;;;128.30;2252.80;;;;;;5072101;28;20052;-77
2022/04/20 10:55:46;;;;;;;20.02;12.02;;;128.40;2252.80;;;;;;5073645;28;20032;-79
2022/04/20 10:58:21;;;;;;;29.77;18.02;;;128.40;2252.80;;;;;;5062850;28;20039;-78
2022/04/20 11:01:06;;;;;;;41.08;25.23;;;128.50;2252.80;;;;;;5073359;28;20033;-77
2022/04/20 11:04:03;;;;;;;10.32;7.70;;;128.60;2252.80;;;;;;5072323;28;20052;-79
2022/04/20 11:06:49;;;;;;;16.40;10.40;;;128.40;2252.80;;;;;;5072235;28;20157;-78
2022/04/20 11:09:41;;;;;;;12.45;8.57;;;128.40;2252.80;;;;;;5072055;28;20035;-75
2022/04/20 11:21:03;;;;;;;49.67;40.05;;;128.60;2252.80;;;;;;5072989;28;20044;-78
2022/04/20 11:23:58;;;;;;;44.25;35.47;;;128.60;2252.80;;;;;;5072249;28;20028;-78
2022/04/20 11:26:47;;;;;;;38.92;26.33;;;128.70;2252.80;;;;;;5072129;28;20029;-78
2022/04/20 11:29:22;;;;;;;37.33;30.23;;;128.80;2252.80;;;;;;5071055;28;20039;-75
2022/04/20 11:31:59;;;;;;;63.08;44.47;;;128.90;2022.40;;;;;;5071796;28;20039;-76
2022/04/20 11:34:27;;;;;;;32.80;23.80;;;153.60;2252.80;;;;;;5071869;28;20166;-77
2022/04/20 11:36:55;;;;;;;29.45;22.50;;;128.90;2252.80;;;;;;5071491;28;20366;-75
2022/04/20 11:39:23;;;;;;;45.50;33.95;;;153.60;2252.80;;;;;;5074211;28;20024;-76
2022/04/20 11:41:50;;;;;;;48.50;31.80;;;153.80;2252.80;;;;;;5074637;28;20071;-76
2022/04/20 11:44:35;;;;;;;;;;;;;;;;;;;;;
2022/04/20 11:47:04;;;;;;;30.73;21.92;;;153.60;2252.80;;;;;;5076219;28;20028;-74
2022/04/20 11:50:08;;;;;;;38.17;24.60;;;153.80;2252.80;;;;;;5074769;28;20119;-79
2022/04/20 11:52:39;;;;;;;28.15;20.10;;;153.80;2252.80;;;;;;5063372;28;20115;-74
2022/04/20 11:55:06;;;;;;;36.45;24.23;;;153.60;2252.80;;;;;;5074794;28;20059;-74
2022/04/20 11:57:33;;;;;;;30.80;21.45;;;128.90;2124.80;;;;;;5074599;28;20497;-74
2022/04/20 12:00:05;;;;;;;29.85;26.17;;;128.80;1996.80;;;;;;5074876;28;20032;-80
2022/04/20 12:02:31;;;;;;;32.08;22.73;;;128.90;2099.20;;;;;;5074654;28;20035;-76
2022/04/20 12:05:10;;;;;;;27.65;22.33;;;128.90;2252.80;;;;;;5074332;28;20028;-73
2022/04/20 12:07:38;;;;;;;30.30;23.23;;;153.70;2252.80;;;;;;5074526;28;20111;-75
2022/04/20 12:10:05;;;;;;;40.88;26.52;;;153.80;2252.80;;;;;;5074164;28;20366;-75
2022/04/20 12:12:34;;;;;;;54.08;38.75;;;153.90;2252.80;;;;;;5074601;28;20429;-75
2022/04/20 12:15:10;;;;;;;54.85;40.05;;;154.30;2252.80;;;;;;5074704;28;20033;-77
2022/04/20 12:17:37;;;;;;;46.03;33.05;;;154.40;1920.00;;;;;;5074385;28;20031;-77
2022/04/20 12:20:03;;;;;;;43.45;31.42;;;154.40;2252.80;;;;;;5074248;28;20082;-80
2022/04/20 12:22:29;;;;;;;41.55;29.10;;;154.40;2252.80;;;;;;5074446;28;20376;-78
2022/04/20 12:25:09;;;;;;;38.75;29.25;;;154.40;2252.80;;;;;;5075236;28;20020;-76
2022/04/20 12:27:52;;;;;;;42.60;30.30;;;154.30;2252.80;;;;;;5074343;28;20400;-76
2022/04/20 12:30:38;;;;;;;50.58;38.70;;;154.50;2252.80;;;;;;5074127;28;20028;-76
2022/04/20 12:33:05;;;;;;;52.47;37.45;;;179.40;2252.80;;;;;;5074498;28;20388;-76
2022/04/20 12:35:32;;;;;;;29.92;22.45;;;179.60;2252.80;;;;;;5074386;28;20029;-77
2022/04/20 12:37:57;;;;;;;28.70;22.35;;;179.40;2252.80;;;;;;5074261;28;20378;-77
2022/04/20 12:40:24;;;;;;;29.60;21.02;;;179.50;1996.80;;;;;;5074240;28;20095;-76
2022/04/20 12:43:12;;;;;;;29.35;22.02;;;179.50;2252.80;;;;;;5073678;28;20053;-81